CFG5AU EDDF-EGKK
Flight info
| Callsign | CFG5AU |
|---|---|
| Flight time | 1h 11m |
| Altitude | 36000 |
| Route | OBOKA3M/25C OBOKA Z29 TORNU DCT BREDA DCT VICOT DCT GALSO Q63 ARREK Y4 TEBRA DCT ABTUM DCT ARNUN DCT LARCK DCT |
| Aircraft | A319/M-SDE3FGHIRWY/LB1 |
Departure
| Time | 2026-05-05 14:34 |
|---|---|
| Airport | Frankfurt Main Airport (EDDF) |
Arrival
| Time | 2026-05-05 15:45 |
|---|---|
| Airport | London Gatwick Airport (EGKK) |
| Time | Latitude | Longitude | Altitude | Speed | Heading |
|---|---|---|---|---|---|
| 2026-05-05 14:10 | 50.04804 | 8.57695 | 361 ft | 0 kts | 232° |
| 2026-05-05 14:22 | 50.04804 | 8.57696 | 360 ft | 0 kts | 232° |
| 2026-05-05 14:26 | 50.04807 | 8.57702 | 360 ft | 3 kts | 232° |
| 2026-05-05 14:26 | 50.04818 | 8.57724 | 362 ft | 3 kts | 232° |
| 2026-05-05 14:27 | 50.04829 | 8.57745 | 365 ft | 2 kts | 232° |
| 2026-05-05 14:27 | 50.04839 | 8.57766 | 357 ft | 2 kts | 232° |
| 2026-05-05 14:27 | 50.04851 | 8.57786 | 362 ft | 3 kts | 202° |
| 2026-05-05 14:27 | 50.04862 | 8.57791 | 363 ft | 0 kts | 178° |
| 2026-05-05 14:28 | 50.04863 | 8.57794 | 363 ft | 0 kts | 120° |
| 2026-05-05 14:29 | 50.04864 | 8.57794 | 363 ft | 0 kts | 120° |
| 2026-05-05 14:30 | 50.04856 | 8.57814 | 362 ft | 3 kts | 120° |
| 2026-05-05 14:30 | 50.04836 | 8.57868 | 363 ft | 9 kts | 122° |
| 2026-05-05 14:31 | 50.04786 | 8.57914 | 360 ft | 11 kts | 161° |
| 2026-05-05 14:31 | 50.04687 | 8.57970 | 358 ft | 15 kts | 160° |
| 2026-05-05 14:31 | 50.04602 | 8.58023 | 360 ft | 11 kts | 159° |
| 2026-05-05 14:31 | 50.04564 | 8.58078 | 362 ft | 6 kts | 104° |
| 2026-05-05 14:32 | 50.04599 | 8.58252 | 369 ft | 21 kts | 70° |
| 2026-05-05 14:32 | 50.04640 | 8.58434 | 369 ft | 15 kts | 69° |
| 2026-05-05 14:32 | 50.04648 | 8.58537 | 369 ft | 10 kts | 113° |
| 2026-05-05 14:32 | 50.04559 | 8.58609 | 371 ft | 13 kts | 160° |
| 2026-05-05 14:33 | 50.04490 | 8.58582 | 370 ft | 12 kts | 246° |
| 2026-05-05 14:33 | 50.04396 | 8.58194 | 370 ft | 75 kts | 249° |
| 2026-05-05 14:33 | 50.04136 | 8.57117 | 367 ft | 134 kts | 249° |
| 2026-05-05 14:33 | 50.03760 | 8.55533 | 523 ft | 167 kts | 250° |
| 2026-05-05 14:34 | 50.03336 | 8.53766 | 996 ft | 186 kts | 249° |
| 2026-05-05 14:34 | 50.02804 | 8.51716 | 1230 ft | 224 kts | 245° |
| 2026-05-05 14:34 | 50.01926 | 8.49714 | 2182 ft | 221 kts | 219° |
| 2026-05-05 14:34 | 50.00594 | 8.48711 | 3458 ft | 208 kts | 199° |
| 2026-05-05 14:35 | 49.99210 | 8.48090 | 4450 ft | 206 kts | 194° |
| 2026-05-05 14:35 | 49.99002 | 8.48008 | 4591 ft | 206 kts | 194° |
| 2026-05-05 14:35 | 49.97961 | 8.47605 | 5090 ft | 210 kts | 194° |
| 2026-05-05 14:36 | 49.96548 | 8.47055 | 6046 ft | 209 kts | 195° |
| 2026-05-05 14:36 | 49.95107 | 8.46469 | 6666 ft | 224 kts | 195° |
| 2026-05-05 14:36 | 49.93531 | 8.45803 | 7192 ft | 242 kts | 195° |
| 2026-05-05 14:36 | 49.91951 | 8.44802 | 7981 ft | 250 kts | 212° |
| 2026-05-05 14:37 | 49.90681 | 8.42936 | 8854 ft | 256 kts | 234° |
| 2026-05-05 14:37 | 49.89739 | 8.40563 | 9767 ft | 260 kts | 237° |
| 2026-05-05 14:37 | 49.88936 | 8.38019 | 10564 ft | 267 kts | 251° |
| 2026-05-05 14:37 | 49.88610 | 8.35120 | 11113 ft | 285 kts | 267° |
| 2026-05-05 14:38 | 49.88742 | 8.31910 | 11402 ft | 311 kts | 273° |
| 2026-05-05 14:38 | 49.89018 | 8.28461 | 11708 ft | 334 kts | 282° |
| 2026-05-05 14:38 | 49.89881 | 8.25063 | 12350 ft | 345 kts | 298° |
| 2026-05-05 14:38 | 49.91260 | 8.21986 | 13120 ft | 350 kts | 306° |
| 2026-05-05 14:39 | 49.92719 | 8.18930 | 13853 ft | 355 kts | 305° |
| 2026-05-05 14:39 | 49.94268 | 8.15926 | 14524 ft | 359 kts | 313° |
| 2026-05-05 14:39 | 49.96129 | 8.13293 | 15195 ft | 364 kts | 319° |
| 2026-05-05 14:39 | 49.98062 | 8.10720 | 15869 ft | 368 kts | 319° |
| 2026-05-05 14:40 | 50.00015 | 8.08116 | 16542 ft | 371 kts | 318° |
| 2026-05-05 14:40 | 50.01984 | 8.05482 | 17209 ft | 375 kts | 318° |
| 2026-05-05 14:40 | 50.03971 | 8.02819 | 17875 ft | 379 kts | 318° |
| 2026-05-05 14:40 | 50.05979 | 8.00127 | 18477 ft | 383 kts | 318° |
| 2026-05-05 14:41 | 50.08005 | 7.97410 | 19032 ft | 386 kts | 318° |
| 2026-05-05 14:41 | 50.10049 | 7.94663 | 19601 ft | 390 kts | 318° |
| 2026-05-05 14:41 | 50.12114 | 7.91885 | 20176 ft | 394 kts | 318° |
| 2026-05-05 14:41 | 50.14195 | 7.89080 | 20737 ft | 397 kts | 317° |
| 2026-05-05 14:42 | 50.16292 | 7.86250 | 21303 ft | 401 kts | 317° |
| 2026-05-05 14:42 | 50.18410 | 7.83389 | 21864 ft | 405 kts | 317° |
| 2026-05-05 14:42 | 50.20543 | 7.80500 | 22428 ft | 408 kts | 317° |
| 2026-05-05 14:42 | 50.22701 | 7.77578 | 22989 ft | 412 kts | 317° |
| 2026-05-05 14:43 | 50.24941 | 7.74744 | 23507 ft | 417 kts | 324° |
| 2026-05-05 14:43 | 50.27459 | 7.72453 | 23951 ft | 421 kts | 334° |
| 2026-05-05 14:43 | 50.30147 | 7.70601 | 24403 ft | 424 kts | 335° |
| 2026-05-05 14:43 | 50.32863 | 7.68748 | 24833 ft | 427 kts | 335° |
| 2026-05-05 14:44 | 50.35602 | 7.66877 | 25267 ft | 430 kts | 335° |
| 2026-05-05 14:44 | 50.38357 | 7.64995 | 25692 ft | 433 kts | 335° |
| 2026-05-05 14:44 | 50.41127 | 7.63097 | 26116 ft | 436 kts | 335° |
| 2026-05-05 14:44 | 50.43916 | 7.61179 | 26525 ft | 440 kts | 335° |
| 2026-05-05 14:45 | 50.46728 | 7.59242 | 26950 ft | 442 kts | 335° |
| 2026-05-05 14:45 | 50.49560 | 7.57289 | 27361 ft | 445 kts | 335° |
| 2026-05-05 14:45 | 50.52408 | 7.55320 | 27780 ft | 448 kts | 334° |
| 2026-05-05 14:45 | 50.55259 | 7.53296 | 28184 ft | 451 kts | 331° |
| 2026-05-05 14:46 | 50.57955 | 7.50778 | 28586 ft | 452 kts | 324° |
| 2026-05-05 14:46 | 50.60594 | 7.48064 | 28990 ft | 455 kts | 324° |
| 2026-05-05 14:46 | 50.63253 | 7.45335 | 29371 ft | 457 kts | 324° |
| 2026-05-05 14:46 | 50.65891 | 7.42627 | 29772 ft | 460 kts | 324° |
| 2026-05-05 14:47 | 50.68616 | 7.39833 | 30127 ft | 462 kts | 324° |
| 2026-05-05 14:47 | 50.71238 | 7.36985 | 30435 ft | 463 kts | 318° |
| 2026-05-05 14:47 | 50.73606 | 7.33575 | 30744 ft | 461 kts | 309° |
| 2026-05-05 14:47 | 50.75626 | 7.29662 | 31058 ft | 459 kts | 300° |
| 2026-05-05 14:48 | 50.77259 | 7.25346 | 31359 ft | 457 kts | 292° |
| 2026-05-05 14:48 | 50.78713 | 7.20868 | 31689 ft | 458 kts | 292° |
| 2026-05-05 14:48 | 50.80166 | 7.16396 | 32128 ft | 457 kts | 292° |
| 2026-05-05 14:48 | 50.81619 | 7.11930 | 32557 ft | 456 kts | 292° |
| 2026-05-05 14:49 | 50.83063 | 7.07476 | 32977 ft | 455 kts | 292° |
| 2026-05-05 14:49 | 50.84508 | 7.03006 | 33396 ft | 455 kts | 291° |
| 2026-05-05 14:49 | 50.85948 | 6.98554 | 33815 ft | 455 kts | 291° |
| 2026-05-05 14:49 | 50.87386 | 6.94106 | 34194 ft | 454 kts | 291° |
| 2026-05-05 14:50 | 50.88821 | 6.89653 | 34571 ft | 453 kts | 291° |
| 2026-05-05 14:50 | 50.90249 | 6.85211 | 34980 ft | 452 kts | 292° |
| 2026-05-05 14:50 | 50.91670 | 6.80785 | 35352 ft | 450 kts | 292° |
| 2026-05-05 14:50 | 50.93089 | 6.76356 | 35715 ft | 450 kts | 292° |
| 2026-05-05 14:51 | 50.94485 | 6.71988 | 35853 ft | 448 kts | 292° |
| 2026-05-05 14:51 | 50.95881 | 6.67607 | 35869 ft | 443 kts | 292° |
| 2026-05-05 14:51 | 50.98641 | 6.58916 | 35868 ft | 439 kts | 292° |
| 2026-05-05 14:52 | 51.01386 | 6.50249 | 35863 ft | 438 kts | 292° |
| 2026-05-05 14:52 | 51.04114 | 6.41604 | 35869 ft | 437 kts | 292° |
| 2026-05-05 14:53 | 51.06840 | 6.32959 | 35876 ft | 437 kts | 292° |
| 2026-05-05 14:53 | 51.09550 | 6.24340 | 35900 ft | 436 kts | 292° |
| 2026-05-05 14:54 | 51.12253 | 6.15673 | 35877 ft | 436 kts | 292° |
| 2026-05-05 14:54 | 51.14542 | 6.06821 | 35884 ft | 429 kts | 280° |
| 2026-05-05 14:55 | 51.16030 | 5.97634 | 35875 ft | 428 kts | 280° |
| 2026-05-05 14:55 | 51.17510 | 5.88499 | 35878 ft | 428 kts | 280° |
| 2026-05-05 14:56 | 51.19775 | 5.79665 | 35880 ft | 437 kts | 298° |
| 2026-05-05 14:56 | 51.23011 | 5.71435 | 35887 ft | 437 kts | 298° |
| 2026-05-05 14:57 | 51.26224 | 5.63197 | 35887 ft | 437 kts | 298° |
| 2026-05-05 14:57 | 51.29426 | 5.54933 | 35888 ft | 437 kts | 298° |
| 2026-05-05 14:58 | 51.32628 | 5.46656 | 35885 ft | 437 kts | 298° |
| 2026-05-05 14:58 | 51.35801 | 5.38420 | 35886 ft | 437 kts | 298° |
| 2026-05-05 14:59 | 51.38991 | 5.30128 | 35887 ft | 437 kts | 297° |
| 2026-05-05 14:59 | 51.42178 | 5.21820 | 35890 ft | 437 kts | 297° |
| 2026-05-05 15:00 | 51.44817 | 5.14912 | 35894 ft | 437 kts | 297° |
| 2026-05-05 15:00 | 51.48519 | 5.05183 | 35919 ft | 437 kts | 297° |
| 2026-05-05 15:01 | 51.51678 | 4.96856 | 35921 ft | 436 kts | 297° |
| 2026-05-05 15:01 | 51.54380 | 4.88278 | 35921 ft | 429 kts | 284° |
| 2026-05-05 15:02 | 51.55254 | 4.78881 | 35917 ft | 420 kts | 265° |
| 2026-05-05 15:02 | 51.54538 | 4.69684 | 35905 ft | 417 kts | 258° |
| 2026-05-05 15:03 | 51.53649 | 4.60455 | 35882 ft | 418 kts | 258° |
| 2026-05-05 15:03 | 51.52762 | 4.51236 | 35871 ft | 418 kts | 258° |
| 2026-05-05 15:04 | 51.51859 | 4.42004 | 35873 ft | 418 kts | 258° |
| 2026-05-05 15:04 | 51.50946 | 4.32779 | 35878 ft | 419 kts | 258° |
| 2026-05-05 15:05 | 51.49574 | 4.18906 | 35875 ft | 419 kts | 258° |
| 2026-05-05 15:06 | 51.48800 | 4.09618 | 35877 ft | 423 kts | 266° |
| 2026-05-05 15:06 | 51.49682 | 4.00246 | 35882 ft | 431 kts | 286° |
| 2026-05-05 15:07 | 51.51711 | 3.92910 | 35885 ft | 434 kts | 292° |
| 2026-05-05 15:07 | 51.54672 | 3.82695 | 35895 ft | 434 kts | 291° |
| 2026-05-05 15:08 | 51.57196 | 3.73888 | 35902 ft | 434 kts | 291° |
| 2026-05-05 15:08 | 51.59719 | 3.65067 | 35905 ft | 434 kts | 291° |
| 2026-05-05 15:09 | 51.61827 | 3.57681 | 35909 ft | 434 kts | 291° |
| 2026-05-05 15:09 | 51.64342 | 3.48866 | 35913 ft | 434 kts | 291° |
| 2026-05-05 15:10 | 51.66856 | 3.40036 | 35914 ft | 433 kts | 291° |
| 2026-05-05 15:10 | 51.69350 | 3.31197 | 35921 ft | 433 kts | 291° |
| 2026-05-05 15:11 | 51.71751 | 3.22296 | 35922 ft | 431 kts | 285° |
| 2026-05-05 15:11 | 51.72729 | 3.12944 | 35922 ft | 423 kts | 267° |
| 2026-05-05 15:12 | 51.72099 | 3.03569 | 35921 ft | 420 kts | 259° |
| 2026-05-05 15:12 | 51.71295 | 2.94230 | 35919 ft | 421 kts | 259° |
| 2026-05-05 15:13 | 51.70491 | 2.84894 | 35916 ft | 421 kts | 259° |
| 2026-05-05 15:13 | 51.69661 | 2.75560 | 35921 ft | 420 kts | 259° |
| 2026-05-05 15:14 | 51.68820 | 2.66224 | 35925 ft | 420 kts | 259° |
| 2026-05-05 15:14 | 51.67983 | 2.56902 | 35923 ft | 420 kts | 259° |
| 2026-05-05 15:15 | 51.67144 | 2.47584 | 35923 ft | 421 kts | 259° |
| 2026-05-05 15:15 | 51.66298 | 2.38247 | 35898 ft | 422 kts | 259° |
| 2026-05-05 15:15 | 51.65870 | 2.33580 | 35424 ft | 421 kts | 259° |
| 2026-05-05 15:16 | 51.65437 | 2.28912 | 34752 ft | 421 kts | 259° |
| 2026-05-05 15:16 | 51.65002 | 2.24245 | 34106 ft | 422 kts | 259° |
| 2026-05-05 15:16 | 51.64565 | 2.19592 | 33562 ft | 418 kts | 259° |
| 2026-05-05 15:16 | 51.64130 | 2.14982 | 33008 ft | 414 kts | 259° |
| 2026-05-05 15:17 | 51.63698 | 2.10410 | 32461 ft | 411 kts | 259° |
| 2026-05-05 15:17 | 51.63271 | 2.05879 | 31921 ft | 408 kts | 259° |
| 2026-05-05 15:17 | 51.62851 | 2.01379 | 31389 ft | 405 kts | 259° |
| 2026-05-05 15:17 | 51.62437 | 1.96915 | 30867 ft | 402 kts | 259° |
| 2026-05-05 15:18 | 51.61996 | 1.92490 | 30359 ft | 398 kts | 255° |
| 2026-05-05 15:18 | 51.61026 | 1.88370 | 29833 ft | 391 kts | 240° |
| 2026-05-05 15:18 | 51.59730 | 1.84540 | 29267 ft | 389 kts | 239° |
| 2026-05-05 15:18 | 51.58433 | 1.80741 | 28701 ft | 387 kts | 239° |
| 2026-05-05 15:19 | 51.57137 | 1.76971 | 28175 ft | 384 kts | 239° |
| 2026-05-05 15:19 | 51.55846 | 1.73227 | 27662 ft | 382 kts | 239° |
| 2026-05-05 15:19 | 51.54560 | 1.69501 | 27172 ft | 380 kts | 239° |
| 2026-05-05 15:19 | 51.53283 | 1.65803 | 26696 ft | 378 kts | 239° |
| 2026-05-05 15:20 | 51.52011 | 1.62127 | 26243 ft | 376 kts | 239° |
| 2026-05-05 15:20 | 51.50741 | 1.58465 | 25792 ft | 374 kts | 239° |
| 2026-05-05 15:20 | 51.49498 | 1.54882 | 25337 ft | 372 kts | 239° |
| 2026-05-05 15:20 | 51.48242 | 1.51266 | 24892 ft | 370 kts | 239° |
| 2026-05-05 15:21 | 51.46990 | 1.47679 | 24435 ft | 368 kts | 239° |
| 2026-05-05 15:21 | 51.45745 | 1.44108 | 23993 ft | 366 kts | 239° |
| 2026-05-05 15:21 | 51.44488 | 1.40581 | 23552 ft | 363 kts | 235° |
| 2026-05-05 15:21 | 51.42960 | 1.37396 | 23055 ft | 358 kts | 225° |
| 2026-05-05 15:22 | 51.41130 | 1.34736 | 22551 ft | 354 kts | 215° |
| 2026-05-05 15:22 | 51.39155 | 1.32407 | 22043 ft | 352 kts | 215° |
| 2026-05-05 15:22 | 51.37185 | 1.30080 | 21553 ft | 351 kts | 215° |
| 2026-05-05 15:22 | 51.35230 | 1.27764 | 21068 ft | 349 kts | 215° |
| 2026-05-05 15:23 | 51.33279 | 1.25453 | 20602 ft | 348 kts | 215° |
| 2026-05-05 15:23 | 51.31337 | 1.23160 | 20139 ft | 347 kts | 215° |
| 2026-05-05 15:23 | 51.29397 | 1.20871 | 19669 ft | 346 kts | 215° |
| 2026-05-05 15:23 | 51.27464 | 1.18592 | 19227 ft | 345 kts | 216° |
| 2026-05-05 15:24 | 51.25537 | 1.16319 | 18800 ft | 344 kts | 216° |
| 2026-05-05 15:24 | 51.23614 | 1.14057 | 18358 ft | 343 kts | 215° |
| 2026-05-05 15:24 | 51.21695 | 1.11806 | 17917 ft | 342 kts | 215° |
| 2026-05-05 15:24 | 51.19782 | 1.09562 | 17471 ft | 340 kts | 215° |
| 2026-05-05 15:25 | 51.17878 | 1.07330 | 17042 ft | 339 kts | 215° |
| 2026-05-05 15:25 | 51.15987 | 1.05111 | 16630 ft | 337 kts | 215° |
| 2026-05-05 15:25 | 51.14103 | 1.02909 | 16225 ft | 335 kts | 215° |
| 2026-05-05 15:25 | 51.12331 | 1.00517 | 15827 ft | 334 kts | 229° |
| 2026-05-05 15:26 | 51.11128 | 0.97380 | 15441 ft | 333 kts | 248° |
| 2026-05-05 15:26 | 51.10332 | 0.93928 | 15052 ft | 332 kts | 250° |
| 2026-05-05 15:26 | 51.09543 | 0.90470 | 14922 ft | 332 kts | 250° |
| 2026-05-05 15:26 | 51.08757 | 0.87028 | 14782 ft | 330 kts | 250° |
| 2026-05-05 15:27 | 51.07970 | 0.83595 | 14376 ft | 330 kts | 250° |
| 2026-05-05 15:27 | 51.07181 | 0.80174 | 13998 ft | 329 kts | 250° |
| 2026-05-05 15:27 | 51.06381 | 0.76767 | 13618 ft | 328 kts | 250° |
| 2026-05-05 15:27 | 51.05585 | 0.73383 | 13229 ft | 326 kts | 250° |
| 2026-05-05 15:28 | 51.04804 | 0.70023 | 12862 ft | 323 kts | 250° |
| 2026-05-05 15:28 | 51.04036 | 0.66678 | 12488 ft | 321 kts | 250° |
| 2026-05-05 15:28 | 51.03281 | 0.63356 | 12232 ft | 318 kts | 250° |
| 2026-05-05 15:28 | 51.02523 | 0.60065 | 11863 ft | 316 kts | 250° |
| 2026-05-05 15:29 | 51.01764 | 0.56802 | 11502 ft | 313 kts | 250° |
| 2026-05-05 15:29 | 51.01010 | 0.53568 | 11137 ft | 311 kts | 251° |
| 2026-05-05 15:29 | 51.00631 | 0.50228 | 10791 ft | 307 kts | 269° |
| 2026-05-05 15:29 | 51.00614 | 0.46853 | 10479 ft | 304 kts | 271° |
| 2026-05-05 15:30 | 51.00627 | 0.43556 | 10350 ft | 294 kts | 271° |
| 2026-05-05 15:30 | 51.00642 | 0.40334 | 10112 ft | 290 kts | 271° |
| 2026-05-05 15:30 | 51.00660 | 0.37147 | 9792 ft | 288 kts | 271° |
| 2026-05-05 15:30 | 51.00676 | 0.33979 | 9437 ft | 286 kts | 271° |
| 2026-05-05 15:31 | 51.00686 | 0.30828 | 9116 ft | 284 kts | 271° |
| 2026-05-05 15:31 | 51.00691 | 0.27698 | 8801 ft | 283 kts | 271° |
| 2026-05-05 15:31 | 51.00696 | 0.24576 | 8476 ft | 282 kts | 271° |
| 2026-05-05 15:31 | 51.00695 | 0.21474 | 8132 ft | 280 kts | 271° |
| 2026-05-05 15:32 | 51.00690 | 0.18392 | 7759 ft | 278 kts | 271° |
| 2026-05-05 15:32 | 51.00680 | 0.15326 | 7376 ft | 277 kts | 271° |
| 2026-05-05 15:32 | 51.00664 | 0.12277 | 6948 ft | 275 kts | 271° |
| 2026-05-05 15:32 | 51.00644 | 0.09238 | 6607 ft | 275 kts | 271° |
| 2026-05-05 15:33 | 51.00622 | 0.06239 | 6414 ft | 268 kts | 271° |
| 2026-05-05 15:33 | 51.00597 | 0.03347 | 6263 ft | 257 kts | 271° |
| 2026-05-05 15:33 | 51.00567 | 0.00535 | 6012 ft | 253 kts | 271° |
| 2026-05-05 15:33 | 51.00533 | -0.02260 | 5710 ft | 253 kts | 271° |
| 2026-05-05 15:34 | 51.00496 | -0.05041 | 5349 ft | 252 kts | 271° |
| 2026-05-05 15:34 | 51.00458 | -0.07819 | 5017 ft | 251 kts | 271° |
| 2026-05-05 15:34 | 51.00419 | -0.10587 | 4661 ft | 251 kts | 271° |
| 2026-05-05 15:34 | 51.00381 | -0.13346 | 4322 ft | 249 kts | 271° |
| 2026-05-05 15:35 | 51.00343 | -0.16087 | 4026 ft | 246 kts | 271° |
| 2026-05-05 15:35 | 51.00302 | -0.18792 | 4002 ft | 243 kts | 271° |
| 2026-05-05 15:35 | 51.00250 | -0.21460 | 4003 ft | 240 kts | 268° |
| 2026-05-05 15:35 | 51.00102 | -0.24045 | 4005 ft | 230 kts | 266° |
| 2026-05-05 15:36 | 50.99940 | -0.26568 | 4003 ft | 229 kts | 266° |
| 2026-05-05 15:36 | 50.99772 | -0.29085 | 4006 ft | 229 kts | 266° |
| 2026-05-05 15:36 | 50.99608 | -0.31599 | 4003 ft | 229 kts | 266° |
| 2026-05-05 15:36 | 50.99440 | -0.34113 | 4003 ft | 229 kts | 266° |
| 2026-05-05 15:37 | 50.99271 | -0.36629 | 4006 ft | 229 kts | 266° |
| 2026-05-05 15:37 | 50.99105 | -0.39144 | 4002 ft | 230 kts | 266° |
| 2026-05-05 15:37 | 50.98937 | -0.41665 | 4007 ft | 230 kts | 266° |
| 2026-05-05 15:37 | 50.98773 | -0.44183 | 4003 ft | 229 kts | 266° |
| 2026-05-05 15:38 | 50.98873 | -0.46647 | 3997 ft | 217 kts | 294° |
| 2026-05-05 15:38 | 50.99705 | -0.48438 | 4008 ft | 194 kts | 324° |
| 2026-05-05 15:38 | 51.00779 | -0.49641 | 3867 ft | 186 kts | 330° |
| 2026-05-05 15:38 | 51.01854 | -0.50729 | 3608 ft | 185 kts | 331° |
| 2026-05-05 15:39 | 51.02944 | -0.51820 | 3335 ft | 185 kts | 331° |
| 2026-05-05 15:39 | 51.04078 | -0.52756 | 3021 ft | 183 kts | 348° |
| 2026-05-05 15:39 | 51.05251 | -0.52781 | 3109 ft | 174 kts | 20° |
| 2026-05-05 15:39 | 51.06263 | -0.51718 | 3069 ft | 177 kts | 42° |
| 2026-05-05 15:40 | 51.07139 | -0.50333 | 3019 ft | 178 kts | 46° |
| 2026-05-05 15:40 | 51.07996 | -0.48907 | 3010 ft | 178 kts | 46° |
| 2026-05-05 15:40 | 51.08848 | -0.47475 | 3009 ft | 178 kts | 46° |
| 2026-05-05 15:40 | 51.09701 | -0.46031 | 3006 ft | 179 kts | 47° |
| 2026-05-05 15:41 | 51.10560 | -0.44594 | 3001 ft | 179 kts | 45° |
| 2026-05-05 15:41 | 51.11357 | -0.43073 | 2965 ft | 180 kts | 60° |
| 2026-05-05 15:41 | 51.11738 | -0.41176 | 2825 ft | 181 kts | 76° |
| 2026-05-05 15:41 | 51.12007 | -0.39222 | 2588 ft | 181 kts | 76° |
| 2026-05-05 15:42 | 51.12280 | -0.37256 | 2394 ft | 183 kts | 76° |
| 2026-05-05 15:42 | 51.12557 | -0.35269 | 2106 ft | 184 kts | 75° |
| 2026-05-05 15:42 | 51.12823 | -0.33356 | 1853 ft | 169 kts | 76° |
| 2026-05-05 15:42 | 51.13064 | -0.31629 | 1672 ft | 150 kts | 75° |
| 2026-05-05 15:43 | 51.13278 | -0.30085 | 1462 ft | 137 kts | 77° |
| 2026-05-05 15:43 | 51.13480 | -0.28641 | 1268 ft | 129 kts | 75° |
| 2026-05-05 15:43 | 51.13671 | -0.27272 | 1088 ft | 126 kts | 76° |
| 2026-05-05 15:43 | 51.13860 | -0.25915 | 926 ft | 124 kts | 76° |
| 2026-05-05 15:44 | 51.14047 | -0.24563 | 738 ft | 126 kts | 77° |
| 2026-05-05 15:44 | 51.14223 | -0.23202 | 576 ft | 124 kts | 77° |
| 2026-05-05 15:44 | 51.14416 | -0.21855 | 369 ft | 125 kts | 77° |
| 2026-05-05 15:44 | 51.14600 | -0.20512 | 233 ft | 123 kts | 77° |
| 2026-05-05 15:45 | 51.14763 | -0.19349 | 209 ft | 93 kts | 78° |
| 2026-05-05 15:45 | 51.14865 | -0.18596 | 203 ft | 50 kts | 77° |
| 2026-05-05 15:45 | 51.14934 | -0.18109 | 210 ft | 36 kts | 77° |
| 2026-05-05 15:45 | 51.15017 | -0.17858 | 207 ft | 21 kts | 51° |
| 2026-05-05 15:46 | 51.15072 | -0.17757 | 207 ft | 1 kts | 29° |
| 2026-05-05 15:46 | 51.15080 | -0.17749 | 209 ft | 3 kts | 29° |
| 2026-05-05 15:46 | 51.15104 | -0.17747 | 205 ft | 4 kts | 358° |
| 2026-05-05 15:46 | 51.15143 | -0.17756 | 205 ft | 8 kts | 352° |
| 2026-05-05 15:47 | 51.15207 | -0.17770 | 205 ft | 9 kts | 352° |
| 2026-05-05 15:47 | 51.15212 | -0.17771 | 210 ft | 0 kts | 352° |
| 2026-05-05 15:47 | 51.15215 | -0.17771 | 208 ft | 1 kts | 352° |
| 2026-05-05 15:47 | 51.15235 | -0.17767 | 205 ft | 4 kts | 15° |
| 2026-05-05 15:48 | 51.15249 | -0.17743 | 210 ft | 5 kts | 56° |
| 2026-05-05 15:48 | 51.15261 | -0.17666 | 208 ft | 9 kts | 75° |
| 2026-05-05 15:48 | 51.15280 | -0.17549 | 207 ft | 12 kts | 76° |
| 2026-05-05 15:48 | 51.15298 | -0.17413 | 207 ft | 13 kts | 71° |
| 2026-05-05 15:49 | 51.15336 | -0.17358 | 206 ft | 3 kts | 352° |
| 2026-05-05 15:49 | 51.15361 | -0.17366 | 210 ft | 4 kts | 346° |
| 2026-05-05 15:49 | 51.15394 | -0.17378 | 208 ft | 7 kts | 348° |
| 2026-05-05 15:49 | 51.15448 | -0.17396 | 205 ft | 9 kts | 348° |
| 2026-05-05 15:50 | 51.15509 | -0.17418 | 205 ft | 10 kts | 345° |
| 2026-05-05 15:50 | 51.15585 | -0.17448 | 205 ft | 12 kts | 349° |
| 2026-05-05 15:50 | 51.15671 | -0.17474 | 210 ft | 13 kts | 348° |
| 2026-05-05 15:50 | 51.15729 | -0.17496 | 205 ft | 5 kts | 349° |
| 2026-05-05 15:51 | 51.15758 | -0.17466 | 212 ft | 6 kts | 55° |
| 2026-05-05 15:51 | 51.15772 | -0.17406 | 206 ft | 6 kts | 77° |
| 2026-05-05 15:51 | 51.15773 | -0.17398 | 205 ft | 0 kts | 77° |
| 2026-05-05 15:51 | 51.15773 | -0.17396 | 205 ft | 1 kts | 78° |
| 2026-05-05 15:52 | 51.15774 | -0.17387 | 205 ft | 3 kts | 79° |
| 2026-05-05 15:52 | 51.15790 | -0.17299 | 205 ft | 10 kts | 53° |
| 2026-05-05 15:52 | 51.15855 | -0.17295 | 209 ft | 10 kts | 341° |
| 2026-05-05 15:52 | 51.15890 | -0.17310 | 205 ft | 0 kts | 347° |